TAF AMD WMAP 220312Z 2203/2300 VRB03KT 9999 FEW017CB
TEMPO 2203/2208 4000 TSRA FEW008 FEW016CB
From batch tds/tafs/production/2024/5/22/h03_m20_tafs.cache.xml.gz
Issued (24 days ago)
Forecasts
2203/2300 VRB03KT 6+SM FEWCB1700

---
fcst_time_to: '2024-05-23T00:00:00Z'
sky_condition:
- sky_cover: FEW
  cloud_type: CB
  cloud_base_ft_agl: '1700'
wind_speed_kt: '3'
fcst_time_from: '2024-05-22T03:00:00Z'
wind_dir_degrees: VRB
visibility_statute_mi: 6+

TEMPO 2203/2208 FEW800 FEWCB1600

---
wx_string: TSRA
fcst_time_to: '2024-05-22T08:00:00Z'
sky_condition:
- - sky_cover: FEW
    cloud_base_ft_agl: '800'
- - sky_cover: FEW
    cloud_type: CB
    cloud_base_ft_agl: '1600'
fcst_time_from: '2024-05-22T03:00:00Z'
change_indicator: TEMPO
visibility_statute_mi: '2.49'

talk